Time,TemperatureF,DewpointF,PressureIn,WindDirection,WindDirectionDegrees,WindSpeedMPH,WindSpeedGustMPH,Humidity,HourlyPrecipIn,Conditions,Clouds,dailyrainin,SoftwareType,DateUTC
2013-05-08 00:00:00,60.2,45.4,30.07,ENE,76,0.0,1.0,58,0.00,,---,0.00,VWS V14.00,2013-05-08 04:00:00,
2013-05-08 00:04:00,59.5,46.9,30.06,ENE,75,0.0,0.0,63,0.00,,---,0.00,VWS V14.00,2013-05-08 04:04:00,
2013-05-08 00:09:00,59.0,45.2,30.06,ENE,76,0.0,0.0,60,0.00,,---,0.00,VWS V14.00,2013-05-08 04:09:00,
2013-05-08 00:15:00,58.8,44.1,30.06,ENE,75,0.0,0.0,58,0.00,,---,0.00,VWS V14.00,2013-05-08 04:15:00,
2013-05-08 00:20:00,58.7,44.4,30.06,ENE,76,0.0,0.0,59,0.00,,---,0.00,VWS V14.00,2013-05-08 04:20:00,
2013-05-08 00:25:00,58.7,43.5,30.06,ENE,75,0.0,1.0,57,0.00,,---,0.00,VWS V14.00,2013-05-08 04:25:00,
2013-05-08 00:30:00,58.7,43.5,30.06,ENE,75,0.0,0.0,57,0.00,,---,0.00,VWS V14.00,2013-05-08 04:30:00,
2013-05-08 00:35:00,58.6,43.4,30.06,ENE,75,0.0,1.0,57,0.00,,---,0.00,VWS V14.00,2013-05-08 04:35:00,
2013-05-08 00:40:00,58.4,44.6,30.06,ENE,75,0.0,1.0,60,0.00,,---,0.00,VWS V14.00,2013-05-08 04:40:00,
2013-05-08 00:45:00,58.1,45.2,30.06,ENE,75,0.0,1.0,62,0.00,,---,0.00,VWS V14.00,2013-05-08 04:45:00,
2013-05-08 00:50:00,57.7,46.4,30.06,ENE,75,0.0,1.0,66,0.00,,---,0.00,VWS V14.00,2013-05-08 04:50:00,
2013-05-08 00:55:00,57.1,46.3,30.06,ENE,75,0.0,1.0,67,0.00,,---,0.00,VWS V14.00,2013-05-08 04:55:00,
2013-05-08 01:00:00,56.8,46.4,30.06,ENE,75,0.0,0.0,68,0.00,,---,0.00,VWS V14.00,2013-05-08 05:00:00,
2013-05-08 01:05:00,56.4,45.2,30.06,ENE,76,0.0,0.0,66,0.00,,---,0.00,VWS V14.00,2013-05-08 05:05:00,
2013-05-08 01:10:00,56.2,45.0,30.06,ENE,75,0.0,0.0,66,0.00,,---,0.00,VWS V14.00,2013-05-08 05:10:00,
2013-05-08 01:15:00,56.1,45.3,30.06,ENE,75,0.0,0.0,67,0.00,,---,0.00,VWS V14.00,2013-05-08 05:15:00,
2013-05-08 01:20:00,55.9,45.1,30.06,ENE,75,0.0,0.0,67,0.00,,---,0.00,VWS V14.00,2013-05-08 05:20:00,
2013-05-08 01:25:00,55.7,44.9,30.06,ENE,75,0.0,0.0,67,0.00,,---,0.00,VWS V14.00,2013-05-08 05:25:00,
2013-05-08 01:30:00,55.5,45.1,30.06,ENE,76,0.0,0.0,68,0.00,,---,0.00,VWS V14.00,2013-05-08 05:30:00,
2013-05-08 01:35:00,55.2,45.2,30.06,ENE,75,0.0,0.0,69,0.00,,---,0.00,VWS V14.00,2013-05-08 05:35:00,
2013-05-08 01:40:00,54.9,45.3,30.06,ENE,76,0.0,0.0,70,0.00,,---,0.00,VWS V14.00,2013-05-08 05:40:00,
2013-05-08 01:45:00,54.8,45.6,30.05,ENE,76,0.0,0.0,71,0.00,,---,0.00,VWS V14.00,2013-05-08 05:45:00,
2013-05-08 01:50:00,54.6,45.0,30.05,ENE,76,0.0,0.0,70,0.00,,---,0.00,VWS V14.00,2013-05-08 05:50:00,
2013-05-08 01:55:00,54.8,44.8,30.05,ENE,76,0.0,0.0,69,0.00,,---,0.00,VWS V14.00,2013-05-08 05:55:00,
2013-05-08 02:00:00,55.0,45.4,30.05,ENE,75,0.0,0.0,70,0.00,,---,0.00,VWS V14.00,2013-05-08 06:00:00,
2013-05-08 02:05:00,55.0,45.8,30.05,ENE,75,0.0,0.0,71,0.00,,---,0.00,VWS V14.00,2013-05-08 06:05:00,
2013-05-08 02:10:00,54.9,46.1,30.05,ENE,75,0.0,0.0,72,0.00,,---,0.00,VWS V14.00,2013-05-08 06:10:00,
2013-05-08 02:15:00,54.8,46.3,30.05,ENE,75,0.0,0.0,73,0.00,,---,0.00,VWS V14.00,2013-05-08 06:15:00,
2013-05-08 02:20:00,54.7,46.2,30.05,ENE,75,0.0,0.0,73,0.00,,---,0.00,VWS V14.00,2013-05-08 06:20:00,
2013-05-08 02:25:00,54.6,46.1,30.05,ENE,75,0.0,0.0,73,0.00,,---,0.00,VWS V14.00,2013-05-08 06:25:00,
2013-05-08 02:30:00,54.5,46.4,30.04,ENE,76,0.0,1.0,74,0.00,,---,0.00,VWS V14.00,2013-05-08 06:30:00,
2013-05-08 02:35:00,54.4,45.9,30.04,ENE,75,0.0,1.0,73,0.00,,---,0.00,VWS V14.00,2013-05-08 06:35:00,
2013-05-08 02:40:00,54.5,46.0,30.04,ENE,75,0.0,1.0,73,0.00,,---,0.00,VWS V14.00,2013-05-08 06:40:00,
2013-05-08 02:45:00,54.3,45.8,30.04,ENE,75,0.0,1.0,73,0.00,,---,0.00,VWS V14.00,2013-05-08 06:45:00,
2013-05-08 02:50:00,54.1,46.0,30.04,ENE,75,0.0,1.0,74,0.00,,---,0.00,VWS V14.00,2013-05-08 06:50:00,
2013-05-08 02:55:00,53.8,46.1,30.04,ENE,76,0.0,1.0,75,0.00,,---,0.00,VWS V14.00,2013-05-08 06:55:00,
2013-05-08 03:00:00,53.6,46.2,30.04,ENE,75,0.0,1.0,76,0.00,,---,0.00,VWS V14.00,2013-05-08 07:00:00,
2013-05-08 03:05:00,53.5,46.1,30.04,ENE,75,0.0,1.0,76,0.00,,---,0.00,VWS V14.00,2013-05-08 07:05:00,
2013-05-08 03:10:00,53.3,46.6,30.04,ENE,76,0.0,1.0,78,0.00,,---,0.00,VWS V14.00,2013-05-08 07:10:00,
2013-05-08 03:15:00,53.2,47.5,30.04,ENE,76,0.0,1.0,81,0.00,,---,0.00,VWS V14.00,2013-05-08 07:15:00,
2013-05-08 03:20:00,53.1,47.8,30.04,ENE,75,0.0,1.0,82,0.00,,---,0.00,VWS V14.00,2013-05-08 07:20:00,
2013-05-08 03:25:00,53.0,48.0,30.04,ENE,75,0.0,1.0,83,0.00,,---,0.00,VWS V14.00,2013-05-08 07:25:00,
2013-05-08 03:30:00,52.9,48.5,30.04,ENE,76,1.0,1.0,85,0.00,,---,0.00,VWS V14.00,2013-05-08 07:30:00,
2013-05-08 03:35:00,52.8,48.7,30.04,ENE,75,0.0,1.0,86,0.00,,---,0.00,VWS V14.00,2013-05-08 07:35:00,
2013-05-08 03:40:00,52.7,48.6,30.04,ENE,76,0.0,1.0,86,0.00,,---,0.00,VWS V14.00,2013-05-08 07:40:00,
2013-05-08 03:45:00,52.5,48.4,30.04,ENE,75,0.0,1.0,86,0.00,,---,0.00,VWS V14.00,2013-05-08 07:45:00,
2013-05-08 03:50:00,52.4,48.3,30.04,ENE,75,0.0,1.0,86,0.00,,---,0.00,VWS V14.00,2013-05-08 07:50:00,
2013-05-08 03:55:00,52.3,48.2,30.04,ENE,75,0.0,2.0,86,0.00,,---,0.00,VWS V14.00,2013-05-08 07:55:00,
2013-05-08 04:00:00,52.1,48.4,30.05,ENE,76,0.0,2.0,87,0.00,,---,0.00,VWS V14.00,2013-05-08 08:00:00,
2013-05-08 04:05:00,51.9,48.2,30.05,ENE,75,0.0,2.0,87,0.00,,---,0.00,VWS V14.00,2013-05-08 08:05:00,
2013-05-08 04:10:00,51.8,48.1,30.05,ENE,75,0.0,2.0,87,0.00,,---,0.00,VWS V14.00,2013-05-08 08:10:00,
2013-05-08 04:15:00,51.6,47.9,30.05,ENE,75,0.0,2.0,87,0.00,,---,0.00,VWS V14.00,2013-05-08 08:15:00,
2013-05-08 04:20:00,51.5,48.1,30.05,ENE,75,0.0,2.0,88,0.00,,---,0.00,VWS V14.00,2013-05-08 08:20:00,
2013-05-08 04:25:00,51.4,48.0,30.05,ENE,75,0.0,2.0,88,0.00,,---,0.00,VWS V14.00,2013-05-08 08:25:00,
2013-05-08 04:30:00,51.2,47.5,30.05,ENE,75,0.0,1.0,87,0.00,,---,0.00,VWS V14.00,2013-05-08 08:30:00,
2013-05-08 04:35:00,51.0,47.6,30.05,ENE,75,0.0,2.0,88,0.00,,---,0.00,VWS V14.00,2013-05-08 08:35:00,
2013-05-08 04:40:00,51.0,47.6,30.05,ENE,75,0.0,2.0,88,0.00,,---,0.00,VWS V14.00,2013-05-08 08:40:00,
2013-05-08 04:45:00,50.9,47.5,30.05,ENE,75,0.0,2.0,88,0.00,,---,0.00,VWS V14.00,2013-05-08 08:45:00,
2013-05-08 04:50:00,50.9,47.5,30.05,ENE,75,0.0,2.0,88,0.00,,---,0.00,VWS V14.00,2013-05-08 08:50:00,
2013-05-08 04:55:00,50.8,47.4,30.05,ENE,75,0.0,2.0,88,0.00,,---,0.00,VWS V14.00,2013-05-08 08:55:00,
2013-05-08 05:00:00,50.8,47.4,30.05,ENE,75,0.0,1.0,88,0.00,,---,0.00,VWS V14.00,2013-05-08 09:00:00,
2013-05-08 05:05:00,50.7,47.3,30.05,ENE,75,0.0,1.0,88,0.00,,---,0.00,VWS V14.00,2013-05-08 09:05:00,
2013-05-08 05:10:00,50.7,47.0,30.04,ENE,76,0.0,1.0,87,0.00,,---,0.00,VWS V14.00,2013-05-08 09:10:00,
2013-05-08 05:15:00,50.6,46.9,30.04,ENE,75,1.0,1.0,87,0.00,,---,0.00,VWS V14.00,2013-05-08 09:15:00,
2013-05-08 05:20:00,50.6,46.9,30.04,ENE,76,0.0,2.0,87,0.00,,---,0.00,VWS V14.00,2013-05-08 09:20:00,
2013-05-08 05:25:00,50.6,46.6,30.05,NNW,343,1.0,4.0,86,0.00,,---,0.00,VWS V14.00,2013-05-08 09:25:00,
2013-05-08 05:30:00,50.7,46.4,30.05,NNW,336,0.0,2.0,85,0.00,,---,0.00,VWS V14.00,2013-05-08 09:30:00,
2013-05-08 05:35:00,50.7,46.0,30.05,NNW,336,0.0,2.0,84,0.00,,---,0.00,VWS V14.00,2013-05-08 09:35:00,
2013-05-08 05:40:00,50.8,45.8,30.05,NNW,335,0.0,3.0,83,0.00,,---,0.00,VWS V14.00,2013-05-08 09:40:00,
2013-05-08 05:45:00,50.7,45.4,30.05,NNW,335,0.0,3.0,82,0.00,,---,0.00,VWS V14.00,2013-05-08 09:45:00,
2013-05-08 05:50:00,50.7,45.1,30.04,NNW,335,0.0,3.0,81,0.00,,---,0.00,VWS V14.00,2013-05-08 09:50:00,
2013-05-08 05:55:00,50.7,44.8,30.05,NNW,335,0.0,3.0,80,0.00,,---,0.00,VWS V14.00,2013-05-08 09:55:00,
2013-05-08 06:00:00,50.8,44.5,30.05,NNW,335,0.0,1.0,79,0.00,,---,0.00,VWS V14.00,2013-05-08 10:00:00,
2013-05-08 06:05:00,50.8,44.2,30.05,NNW,335,2.0,2.0,78,0.00,,---,0.00,VWS V14.00,2013-05-08 10:05:00,
2013-05-08 06:10:00,50.8,44.2,30.05,NNW,335,0.0,2.0,78,0.00,,---,0.00,VWS V14.00,2013-05-08 10:10:00,
2013-05-08 06:15:00,50.8,43.9,30.05,NNW,336,0.0,2.0,77,0.00,,---,0.00,VWS V14.00,2013-05-08 10:15:00,
2013-05-08 06:20:00,50.8,43.9,30.05,NNW,336,0.0,3.0,77,0.00,,---,0.00,VWS V14.00,2013-05-08 10:20:00,
2013-05-08 06:25:00,50.7,43.8,30.05,NNW,335,0.0,3.0,77,0.00,,---,0.00,VWS V14.00,2013-05-08 10:25:00,
2013-05-08 06:30:00,50.6,43.7,30.05,NNW,335,0.0,1.0,77,0.00,,---,0.00,VWS V14.00,2013-05-08 10:30:00,
2013-05-08 06:35:00,50.7,43.1,30.05,NNW,336,0.0,3.0,75,0.00,,---,0.00,VWS V14.00,2013-05-08 10:35:00,
2013-05-08 06:40:00,50.8,43.2,30.05,NNW,335,0.0,3.0,75,0.00,,---,0.00,VWS V14.00,2013-05-08 10:40:00,
2013-05-08 06:45:00,50.9,42.9,30.06,NNW,336,0.0,3.0,74,0.00,,---,0.00,VWS V14.00,2013-05-08 10:45:00,
2013-05-08 06:51:00,51.0,42.7,30.06,NNW,335,0.0,3.0,73,0.00,,---,0.00,VWS V14.00,2013-05-08 10:51:00,
2013-05-08 06:56:00,51.1,42.8,30.06,NNW,335,1.0,3.0,73,0.00,,---,0.00,VWS V14.00,2013-05-08 10:56:00,
2013-05-08 07:00:00,51.2,42.8,30.06,NNW,335,0.0,3.0,73,0.00,,---,0.00,VWS V14.00,2013-05-08 11:00:00,
2013-05-08 07:01:00,51.3,42.6,30.06,NNW,335,0.0,1.0,72,0.00,,---,0.00,VWS V14.00,2013-05-08 11:01:00,
2013-05-08 07:06:00,51.5,42.4,30.06,NNW,335,0.0,1.0,71,0.00,,---,0.00,VWS V14.00,2013-05-08 11:06:00,
2013-05-08 07:11:00,51.7,42.6,30.06,NNW,335,0.0,2.0,71,0.00,,---,0.00,VWS V14.00,2013-05-08 11:11:00,
2013-05-08 07:16:00,51.9,42.8,30.06,NNW,335,0.0,2.0,71,0.00,,---,0.00,VWS V14.00,2013-05-08 11:16:00,
2013-05-08 07:21:00,52.0,42.5,30.06,NNW,336,0.0,2.0,70,0.00,,---,0.00,VWS V14.00,2013-05-08 11:21:00,
2013-05-08 07:26:00,52.3,42.5,30.06,NNW,336,0.0,2.0,69,0.00,,---,0.00,VWS V14.00,2013-05-08 11:26:00,
2013-05-08 07:30:00,52.4,42.5,30.06,NNW,336,2.0,2.0,69,0.00,,---,0.00,VWS V14.00,2013-05-08 11:30:00,
2013-05-08 07:31:00,52.8,42.5,30.06,NNW,335,1.0,3.0,68,0.00,,---,0.00,VWS V14.00,2013-05-08 11:31:00,
2013-05-08 07:36:00,53.3,43.0,30.06,NNW,332,0.0,3.0,68,0.00,,---,0.00,VWS V14.00,2013-05-08 11:36:00,
2013-05-08 07:41:00,53.8,43.1,30.06,NNW,331,0.0,3.0,67,0.00,,---,0.00,VWS V14.00,2013-05-08 11:41:00,
2013-05-08 07:46:00,54.4,43.7,30.06,NNW,331,0.0,3.0,67,0.00,,---,0.00,VWS V14.00,2013-05-08 11:46:00,
2013-05-08 07:51:00,55.0,44.3,30.06,NNW,331,0.0,4.0,67,0.00,,---,0.00,VWS V14.00,2013-05-08 11:51:00,
2013-05-08 07:56:00,55.8,45.0,30.06,NNW,332,2.0,4.0,67,0.00,,---,0.00,VWS V14.00,2013-05-08 11:56:00,
2013-05-08 08:00:00,56.0,45.2,30.06,NNW,331,0.0,4.0,67,0.00,,---,0.00,VWS V14.00,2013-05-08 12:00:00,
2013-05-08 08:01:00,56.6,45.8,30.06,North,355,1.0,4.0,67,0.00,,---,0.00,VWS V14.00,2013-05-08 12:01:00,
2013-05-08 08:06:00,57.2,46.4,30.07,North,355,3.0,4.0,67,0.00,,---,0.00,VWS V14.00,2013-05-08 12:06:00,
2013-05-08 08:11:00,57.9,46.6,30.07,North,355,0.0,4.0,66,0.00,,---,0.00,VWS V14.00,2013-05-08 12:11:00,
2013-05-08 08:16:00,58.8,47.5,30.07,North,355,2.0,4.0,66,0.00,,---,0.00,VWS V14.00,2013-05-08 12:16:00,
2013-05-08 08:21:00,59.6,47.8,30.07,North,360,3.0,4.0,65,0.00,,---,0.00,VWS V14.00,2013-05-08 12:21:00,
2013-05-08 08:26:00,60.2,48.0,30.07,East,86,0.0,4.0,64,0.00,,---,0.00,VWS V14.00,2013-05-08 12:26:00,
2013-05-08 08:30:00,60.3,47.7,30.07,NE,35,0.0,4.0,63,0.00,,---,0.00,VWS V14.00,2013-05-08 12:30:00,
2013-05-08 08:31:00,60.7,48.0,30.07,NNE,29,0.0,4.0,63,0.00,,---,0.00,VWS V14.00,2013-05-08 12:31:00,
2013-05-08 08:36:00,61.1,48.4,30.07,NE,51,1.0,4.0,63,0.00,,---,0.00,VWS V14.00,2013-05-08 12:36:00,
2013-05-08 08:41:00,61.5,48.4,30.07,ENE,59,2.0,6.0,62,0.00,,---,0.00,VWS V14.00,2013-05-08 12:41:00,
2013-05-08 08:46:00,62.1,48.9,30.07,NE,53,0.0,6.0,62,0.00,,---,0.00,VWS V14.00,2013-05-08 12:46:00,
2013-05-08 08:51:00,62.8,49.2,30.07,NE,53,0.0,6.0,61,0.00,,---,0.00,VWS V14.00,2013-05-08 12:51:00,
2013-05-08 08:56:00,63.5,49.4,30.06,NE,50,3.0,6.0,60,0.00,,---,0.00,VWS V14.00,2013-05-08 12:56:00,
2013-05-08 09:00:00,63.7,49.6,30.07,NE,49,3.0,6.0,60,0.00,,---,0.00,VWS V14.00,2013-05-08 13:00:00,
2013-05-08 09:01:00,64.1,49.0,30.07,NE,40,3.0,3.0,58,0.00,,---,0.00,VWS V14.00,2013-05-08 13:01:00,
2013-05-08 09:06:00,64.5,48.5,30.07,NE,40,1.0,4.0,56,0.00,,---,0.00,VWS V14.00,2013-05-08 13:06:00,
2013-05-08 09:11:00,64.4,47.9,30.07,North,9,0.0,5.0,55,0.00,,---,0.00,VWS V14.00,2013-05-08 13:11:00,
2013-05-08 09:16:00,64.8,47.8,30.07,North,11,3.0,5.0,54,0.00,,---,0.00,VWS V14.00,2013-05-08 13:16:00,
2013-05-08 09:21:00,65.3,47.2,30.07,North,11,1.0,5.0,52,0.00,,---,0.00,VWS V14.00,2013-05-08 13:21:00,
2013-05-08 09:26:00,65.9,47.8,30.07,NE,42,1.0,5.0,52,0.00,,---,0.00,VWS V14.00,2013-05-08 13:26:00,
2013-05-08 09:30:00,66.1,47.5,30.07,NE,43,1.0,5.0,51,0.00,,---,0.00,VWS V14.00,2013-05-08 13:30:00,
2013-05-08 09:31:00,66.6,47.9,30.07,NW,318,1.0,4.0,51,0.00,,---,0.00,VWS V14.00,2013-05-08 13:31:00,
2013-05-08 09:36:00,66.8,48.1,30.07,North,350,1.0,5.0,51,0.00,,---,0.00,VWS V14.00,2013-05-08 13:36:00,
2013-05-08 09:41:00,66.9,47.1,30.07,North,10,0.0,5.0,49,0.00,,---,0.00,VWS V14.00,2013-05-08 13:41:00,
2013-05-08 09:46:00,67.0,47.8,30.07,North,9,1.0,5.0,50,0.00,,---,0.00,VWS V14.00,2013-05-08 13:46:00,
2013-05-08 09:51:00,66.9,47.1,30.07,North,5,2.0,5.0,49,0.00,,---,0.00,VWS V14.00,2013-05-08 13:51:00,
2013-05-08 09:56:00,67.0,47.2,30.06,North,9,0.0,7.0,49,0.00,,---,0.00,VWS V14.00,2013-05-08 13:56:00,
2013-05-08 10:00:00,67.0,47.2,30.07,North,9,0.0,7.0,49,0.00,,---,0.00,VWS V14.00,2013-05-08 14:00:00,
2013-05-08 10:01:00,67.3,47.0,30.06,NNW,331,4.0,7.0,48,0.00,,---,0.00,VWS V14.00,2013-05-08 14:01:00,
2013-05-08 10:06:00,67.3,46.4,30.06,NE,38,1.0,7.0,47,0.00,,---,0.00,VWS V14.00,2013-05-08 14:06:00,
2013-05-08 10:11:00,67.7,46.8,30.06,NNE,28,3.0,7.0,47,0.00,,---,0.00,VWS V14.00,2013-05-08 14:11:00,
2013-05-08 10:16:00,68.1,47.7,30.06,NNE,19,2.0,7.0,48,0.00,,---,0.00,VWS V14.00,2013-05-08 14:16:00,
2013-05-08 10:21:00,68.6,48.2,30.06,NNE,18,2.0,7.0,48,0.00,,---,0.00,VWS V14.00,2013-05-08 14:21:00,
2013-05-08 10:26:00,69.0,48.5,30.06,NNW,343,4.0,7.0,48,0.00,,---,0.00,VWS V14.00,2013-05-08 14:26:00,
2013-05-08 10:30:00,69.2,48.7,30.06,NNW,343,2.0,7.0,48,0.00,,---,0.00,VWS V14.00,2013-05-08 14:30:00,
2013-05-08 10:31:00,69.4,48.9,30.06,NNW,344,1.0,3.0,48,0.00,,---,0.00,VWS V14.00,2013-05-08 14:31:00,
2013-05-08 10:36:00,69.4,48.9,30.06,WNW,294,4.0,7.0,48,0.00,,---,0.00,VWS V14.00,2013-05-08 14:36:00,
2013-05-08 10:41:00,69.0,48.5,30.06,NNW,330,4.0,7.0,48,0.00,,---,0.00,VWS V14.00,2013-05-08 14:41:00,
2013-05-08 10:46:00,69.2,49.8,30.06,NW,320,4.0,7.0,50,0.00,,---,0.00,VWS V14.00,2013-05-08 14:46:00,
2013-05-08 10:51:00,69.3,49.3,30.06,WNW,299,3.0,7.0,49,0.00,,---,0.00,VWS V14.00,2013-05-08 14:51:00,
2013-05-08 10:56:00,69.5,50.1,30.06,WNW,300,3.0,7.0,50,0.00,,---,0.00,VWS V14.00,2013-05-08 14:56:00,
2013-05-08 11:00:00,69.6,50.2,30.06,NNE,13,4.0,7.0,50,0.00,,---,0.00,VWS V14.00,2013-05-08 15:00:00,
2013-05-08 11:01:00,69.9,49.9,30.06,NNW,340,3.0,6.0,49,0.00,,---,0.00,VWS V14.00,2013-05-08 15:01:00,
2013-05-08 11:06:00,70.3,50.8,30.06,NW,321,0.0,6.0,50,0.00,,---,0.00,VWS V14.00,2013-05-08 15:06:00,
2013-05-08 11:11:00,70.8,50.7,30.06,NW,313,3.0,6.0,49,0.00,,---,0.00,VWS V14.00,2013-05-08 15:11:00,
2013-05-08 11:16:00,70.9,50.8,30.06,NW,322,1.0,6.0,49,0.00,,---,0.00,VWS V14.00,2013-05-08 15:16:00,
2013-05-08 11:21:00,71.4,51.3,30.06,NW,318,0.0,6.0,49,0.00,,---,0.00,VWS V14.00,2013-05-08 15:21:00,
2013-05-08 11:26:00,71.9,51.2,30.06,North,349,3.0,6.0,48,0.00,,---,0.00,VWS V14.00,2013-05-08 15:26:00,
2013-05-08 11:30:00,72.1,51.3,30.06,NNW,348,2.0,6.0,48,0.00,,---,0.00,VWS V14.00,2013-05-08 15:30:00,
2013-05-08 11:31:00,72.1,51.3,30.06,NNW,337,1.0,7.0,48,0.00,,---,0.00,VWS V14.00,2013-05-08 15:31:00,
2013-05-08 11:36:00,72.5,51.7,30.06,NNW,346,3.0,7.0,48,0.00,,---,0.00,VWS V14.00,2013-05-08 15:36:00,
2013-05-08 11:41:00,73.1,51.7,30.06,North,351,1.0,7.0,47,0.00,,---,0.00,VWS V14.00,2013-05-08 15:41:00,
2013-05-08 11:46:00,73.7,51.7,30.06,NNE,26,4.0,7.0,46,0.00,,---,0.00,VWS V14.00,2013-05-08 15:46:00,
2013-05-08 11:51:00,73.8,51.8,30.05,NNW,327,4.0,7.0,46,0.00,,---,0.00,VWS V14.00,2013-05-08 15:51:00,
2013-05-08 11:56:00,74.5,52.4,30.05,NNE,15,2.0,7.0,46,0.00,,---,0.00,VWS V14.00,2013-05-08 15:56:00,
2013-05-08 12:00:00,74.6,52.5,30.05,NNE,14,0.0,7.0,46,0.00,,---,0.00,VWS V14.00,2013-05-08 16:00:00,
2013-05-08 12:01:00,74.9,52.2,30.05,NNE,13,0.0,6.0,45,0.00,,---,0.00,VWS V14.00,2013-05-08 16:01:00,
2013-05-08 12:06:00,75.4,52.0,30.05,NNE,13,2.0,6.0,44,0.00,,---,0.00,VWS V14.00,2013-05-08 16:06:00,
2013-05-08 12:11:00,75.5,51.5,30.05,NE,49,0.0,6.0,43,0.00,,---,0.00,VWS V14.00,2013-05-08 16:11:00,
2013-05-08 12:16:00,76.2,51.5,30.05,NNE,19,1.0,7.0,42,0.00,,---,0.00,VWS V14.00,2013-05-08 16:16:00,
2013-05-08 12:21:00,76.3,51.5,30.05,NNE,20,0.0,7.0,42,0.00,,---,0.00,VWS V14.00,2013-05-08 16:21:00,
2013-05-08 12:26:00,75.8,50.5,30.05,North,360,5.0,7.0,41,0.00,,---,0.00,VWS V14.00,2013-05-08 16:26:00,
2013-05-08 12:30:00,75.7,50.4,30.05,North,360,3.0,7.0,41,0.00,,---,0.00,VWS V14.00,2013-05-08 16:30:00,
2013-05-08 12:31:00,75.7,49.7,30.05,ENE,59,1.0,8.0,40,0.00,,---,0.00,VWS V14.00,2013-05-08 16:31:00,
2013-05-08 12:36:00,76.3,49.5,30.05,North,355,2.0,8.0,39,0.00,,---,0.00,VWS V14.00,2013-05-08 16:36:00,
2013-05-08 12:41:00,76.3,48.1,30.05,NE,42,4.0,8.0,37,0.00,,---,0.00,VWS V14.00,2013-05-08 16:41:00,
2013-05-08 12:46:00,76.3,47.4,30.05,North,9,2.0,8.0,36,0.00,,---,0.00,VWS V14.00,2013-05-08 16:46:00,
2013-05-08 12:51:00,76.5,48.3,30.05,North,355,5.0,8.0,37,0.00,,---,0.00,VWS V14.00,2013-05-08 16:51:00,
2013-05-08 12:56:00,76.2,48.8,30.04,NE,41,0.0,8.0,38,0.00,,---,0.00,VWS V14.00,2013-05-08 16:56:00,
2013-05-08 13:00:00,76.2,48.8,30.04,SE,136,4.0,8.0,38,0.00,,---,0.00,VWS V14.00,2013-05-08 17:00:00,
2013-05-08 13:01:00,76.4,48.2,30.04,NNW,344,4.0,9.0,37,0.00,,---,0.00,VWS V14.00,2013-05-08 17:01:00,
2013-05-08 13:06:00,76.6,48.4,30.04,NNE,12,1.0,9.0,37,0.00,,---,0.00,VWS V14.00,2013-05-08 17:06:00,
2013-05-08 13:11:00,77.0,48.0,30.04,NW,326,2.0,9.0,36,0.00,,---,0.00,VWS V14.00,2013-05-08 17:11:00,
2013-05-08 13:16:00,76.9,47.9,30.04,NNW,344,3.0,9.0,36,0.00,,---,0.00,VWS V14.00,2013-05-08 17:16:00,
2013-05-08 13:21:00,77.2,47.5,30.03,NNW,347,6.0,9.0,35,0.00,,---,0.00,VWS V14.00,2013-05-08 17:21:00,
2013-05-08 13:26:00,77.1,47.4,30.03,NNE,15,4.0,9.0,35,0.00,,---,0.00,VWS V14.00,2013-05-08 17:26:00,
2013-05-08 13:30:00,77.1,46.6,30.03,NNE,25,2.0,9.0,34,0.00,,---,0.00,VWS V14.00,2013-05-08 17:30:00,
2013-05-08 13:31:00,77.5,47.0,30.03,ENE,63,3.0,6.0,34,0.00,,---,0.00,VWS V14.00,2013-05-08 17:31:00,
2013-05-08 13:36:00,77.8,46.4,30.03,North,11,4.0,8.0,33,0.00,,---,0.00,VWS V14.00,2013-05-08 17:36:00,
2013-05-08 13:41:00,77.8,44.8,30.03,NE,44,2.0,8.0,31,0.00,,---,0.00,VWS V14.00,2013-05-08 17:41:00,
2013-05-08 13:46:00,77.7,45.5,30.03,NW,314,2.0,8.0,32,0.00,,---,0.00,VWS V14.00,2013-05-08 17:46:00,
2013-05-08 13:51:00,77.9,44.9,30.03,East,89,4.0,8.0,31,0.00,,---,0.00,VWS V14.00,2013-05-08 17:51:00,
2013-05-08 13:56:00,78.0,44.1,30.03,NE,46,3.0,8.0,30,0.00,,---,0.00,VWS V14.00,2013-05-08 17:56:00,
2013-05-08 14:00:00,78.0,45.0,30.03,NE,48,1.0,8.0,31,0.00,,---,0.00,VWS V14.00,2013-05-08 18:00:00,
2013-05-08 14:01:00,78.3,43.5,30.02,NNE,19,5.0,6.0,29,0.00,,---,0.00,VWS V14.00,2013-05-08 18:01:00,
2013-05-08 14:07:00,78.4,43.5,30.02,East,95,5.0,8.0,29,0.00,,---,0.00,VWS V14.00,2013-05-08 18:07:00,
2013-05-08 14:12:00,78.3,43.5,30.02,East,97,7.0,9.0,29,0.00,,---,0.00,VWS V14.00,2013-05-08 18:12:00,
2013-05-08 14:17:00,78.2,43.4,30.02,NNE,30,4.0,9.0,29,0.00,,---,0.00,VWS V14.00,2013-05-08 18:17:00,
2013-05-08 14:22:00,78.4,43.5,30.02,NE,35,3.0,9.0,29,0.00,,---,0.00,VWS V14.00,2013-05-08 18:22:00,
2013-05-08 14:27:00,78.7,43.8,30.02,East,88,1.0,9.0,29,0.00,,---,0.00,VWS V14.00,2013-05-08 18:27:00,
2013-05-08 14:30:00,78.7,42.9,30.02,NNE,30,6.0,9.0,28,0.00,,---,0.00,VWS V14.00,2013-05-08 18:30:00,
2013-05-08 14:32:00,78.5,43.6,30.02,ENE,65,4.0,8.0,29,0.00,,---,0.00,VWS V14.00,2013-05-08 18:32:00,
2013-05-08 14:37:00,78.1,42.4,30.02,ESE,103,8.0,11.0,28,0.00,,---,0.00,VWS V14.00,2013-05-08 18:37:00,
2013-05-08 14:42:00,77.5,41.9,30.02,East,94,4.0,11.0,28,0.00,,---,0.00,VWS V14.00,2013-05-08 18:42:00,
2013-05-08 14:47:00,77.5,42.8,30.02,ESE,103,6.0,11.0,29,0.00,,---,0.00,VWS V14.00,2013-05-08 18:47:00,
2013-05-08 14:52:00,77.3,42.6,30.02,ESE,111,6.0,11.0,29,0.00,,---,0.00,VWS V14.00,2013-05-08 18:52:00,
2013-05-08 14:57:00,77.8,43.0,30.02,North,11,5.0,11.0,29,0.00,,---,0.00,VWS V14.00,2013-05-08 18:57:00,
2013-05-08 15:00:00,77.9,43.1,30.02,WNW,288,1.0,11.0,29,0.00,,---,0.00,VWS V14.00,2013-05-08 19:00:00,
2013-05-08 15:02:00,78.2,43.4,30.02,NE,53,4.0,7.0,29,0.00,,---,0.00,VWS V14.00,2013-05-08 19:02:00,
2013-05-08 15:07:00,78.4,44.4,30.02,East,88,4.0,7.0,30,0.00,,---,0.00,VWS V14.00,2013-05-08 19:07:00,
2013-05-08 15:12:00,78.6,43.7,30.02,ENE,57,0.0,9.0,29,0.00,,---,0.00,VWS V14.00,2013-05-08 19:12:00,
2013-05-08 15:17:00,78.4,42.6,30.02,East,86,4.0,9.0,28,0.00,,---,0.00,VWS V14.00,2013-05-08 19:17:00,
2013-05-08 15:22:00,78.5,42.7,30.01,NNE,24,0.0,9.0,28,0.00,,---,0.00,VWS V14.00,2013-05-08 19:22:00,
2013-05-08 15:27:00,78.9,43.1,30.01,North,355,2.0,9.0,28,0.00,,---,0.00,VWS V14.00,2013-05-08 19:27:00,
2013-05-08 15:30:00,78.9,43.1,30.01,North,355,1.0,9.0,28,0.00,,---,0.00,VWS V14.00,2013-05-08 19:30:00,
2013-05-08 15:32:00,79.0,43.2,30.01,NNE,23,2.0,8.0,28,0.00,,---,0.00,VWS V14.00,2013-05-08 19:32:00,
2013-05-08 15:37:00,79.1,42.3,30.01,ESE,103,1.0,8.0,27,0.00,,---,0.00,VWS V14.00,2013-05-08 19:37:00,
2013-05-08 15:42:00,79.2,42.4,30.01,NE,34,3.0,8.0,27,0.00,,---,0.00,VWS V14.00,2013-05-08 19:42:00,
2013-05-08 15:47:00,79.3,43.4,30.01,NE,43,2.0,8.0,28,0.00,,---,0.00,VWS V14.00,2013-05-08 19:47:00,
2013-05-08 15:52:00,79.4,41.6,30.00,SE,126,5.0,8.0,26,0.00,,---,0.00,VWS V14.00,2013-05-08 19:52:00,
2013-05-08 15:57:00,79.6,42.7,30.00,ESE,103,6.0,8.0,27,0.00,,---,0.00,VWS V14.00,2013-05-08 19:57:00,
2013-05-08 16:00:00,79.5,42.6,30.00,ENE,70,4.0,8.0,27,0.00,,---,0.00,VWS V14.00,2013-05-08 20:00:00,
2013-05-08 16:02:00,79.4,40.5,30.00,North,351,4.0,7.0,25,0.00,,---,0.00,VWS V14.00,2013-05-08 20:02:00,
2013-05-08 16:07:00,79.2,41.4,30.00,NE,42,2.0,8.0,26,0.00,,---,0.00,VWS V14.00,2013-05-08 20:07:00,
2013-05-08 16:12:00,79.2,41.4,30.00,ENE,76,6.0,9.0,26,0.00,,---,0.00,VWS V14.00,2013-05-08 20:12:00,
2013-05-08 16:17:00,79.3,40.5,30.00,NNE,25,6.0,9.0,25,0.00,,---,0.00,VWS V14.00,2013-05-08 20:17:00,
2013-05-08 16:22:00,79.6,40.7,29.99,ENE,77,1.0,9.0,25,0.00,,---,0.00,VWS V14.00,2013-05-08 20:22:00,
2013-05-08 16:27:00,79.9,39.9,29.99,East,92,6.0,9.0,24,0.00,,---,0.00,VWS V14.00,2013-05-08 20:27:00,
2013-05-08 16:30:00,79.9,39.9,29.99,NE,54,2.0,9.0,24,0.00,,---,0.00,VWS V14.00,2013-05-08 20:30:00,
2013-05-08 16:32:00,80.0,41.1,29.99,NNE,22,4.0,7.0,25,0.00,,---,0.00,VWS V14.00,2013-05-08 20:32:00,
2013-05-08 16:37:00,80.3,39.2,29.99,NE,53,1.0,7.0,23,0.00,,---,0.00,VWS V14.00,2013-05-08 20:37:00,
2013-05-08 16:42:00,80.0,41.1,29.99,NE,44,1.0,7.0,25,0.00,,---,0.00,VWS V14.00,2013-05-08 20:42:00,
2013-05-08 16:47:00,80.1,41.1,29.98,East,82,4.0,7.0,25,0.00,,---,0.00,VWS V14.00,2013-05-08 20:47:00,
2013-05-08 16:52:00,79.9,39.9,29.99,NE,46,1.0,7.0,24,0.00,,---,0.00,VWS V14.00,2013-05-08 20:52:00,
2013-05-08 16:57:00,80.0,41.1,29.98,NE,36,2.0,7.0,25,0.00,,---,0.00,VWS V14.00,2013-05-08 20:57:00,
2013-05-08 17:00:00,80.0,41.1,29.98,NNE,32,2.0,7.0,25,0.00,,---,0.00,VWS V14.00,2013-05-08 21:00:00,
2013-05-08 17:02:00,80.3,40.3,29.98,NNE,33,3.0,6.0,24,0.00,,---,0.00,VWS V14.00,2013-05-08 21:02:00,
2013-05-08 17:07:00,80.2,40.2,29.98,ENE,65,2.0,6.0,24,0.00,,---,0.00,VWS V14.00,2013-05-08 21:07:00,
2013-05-08 17:12:00,79.9,39.9,29.98,ESE,103,1.0,6.0,24,0.00,,---,0.00,VWS V14.00,2013-05-08 21:12:00,
2013-05-08 17:17:00,79.4,40.5,29.98,NE,42,1.0,7.0,25,0.00,,---,0.00,VWS V14.00,2013-05-08 21:17:00,
2013-05-08 17:22:00,79.2,39.3,29.98,NE,37,2.0,7.0,24,0.00,,---,0.00,VWS V14.00,2013-05-08 21:22:00,
2013-05-08 17:27:00,78.7,40.0,29.98,East,97,1.0,9.0,25,0.00,,---,0.00,VWS V14.00,2013-05-08 21:27:00,
2013-05-08 17:30:00,78.7,40.0,29.98,East,96,1.0,9.0,25,0.00,,---,0.00,VWS V14.00,2013-05-08 21:30:00,
2013-05-08 17:32:00,78.3,39.6,29.98,ESE,111,1.0,8.0,25,0.00,,---,0.00,VWS V14.00,2013-05-08 21:32:00,
2013-05-08 17:37:00,78.1,38.4,29.98,East,83,3.0,11.0,24,0.00,,---,0.00,VWS V14.00,2013-05-08 21:37:00,
2013-05-08 17:42:00,78.4,39.7,29.98,SE,125,4.0,11.0,25,0.00,,---,0.00,VWS V14.00,2013-05-08 21:42:00,
2013-05-08 17:47:00,78.6,38.8,29.98,ESE,106,6.0,11.0,24,0.00,,---,0.00,VWS V14.00,2013-05-08 21:47:00,
2013-05-08 17:52:00,78.3,38.6,29.98,NE,34,2.0,11.0,24,0.00,,---,0.00,VWS V14.00,2013-05-08 21:52:00,
2013-05-08 17:57:00,78.4,39.7,29.98,North,9,1.0,11.0,25,0.00,,---,0.00,VWS V14.00,2013-05-08 21:57:00,
2013-05-08 18:00:00,78.4,39.7,29.98,North,9,1.0,11.0,25,0.00,,---,0.00,VWS V14.00,2013-05-08 22:00:00,
2013-05-08 18:02:00,78.6,39.9,29.98,NNW,329,3.0,5.0,25,0.00,,---,0.00,VWS V14.00,2013-05-08 22:02:00,
2013-05-08 18:07:00,78.6,39.9,29.98,NNE,13,0.0,5.0,25,0.00,,---,0.00,VWS V14.00,2013-05-08 22:07:00,
2013-05-08 18:12:00,78.7,40.0,29.98,East,87,5.0,5.0,25,0.00,,---,0.00,VWS V14.00,2013-05-08 22:12:00,
2013-05-08 18:18:00,78.4,42.6,29.98,NNW,348,0.0,7.0,28,0.00,,---,0.00,VWS V14.00,2013-05-08 22:18:00,
2013-05-08 18:23:00,78.6,43.7,29.98,NE,36,1.0,7.0,29,0.00,,---,0.00,VWS V14.00,2013-05-08 22:23:00,
2013-05-08 18:28:00,78.5,43.6,29.98,NNE,28,2.0,2.0,29,0.00,,---,0.00,VWS V14.00,2013-05-08 22:28:00,
2013-05-08 18:30:00,78.5,43.6,29.98,NE,42,3.0,7.0,29,0.00,,---,0.00,VWS V14.00,2013-05-08 22:30:00,
2013-05-08 18:33:00,78.1,42.4,29.98,East,89,1.0,4.0,28,0.00,,---,0.00,VWS V14.00,2013-05-08 22:33:00,
2013-05-08 18:38:00,77.8,43.0,29.98,North,355,2.0,5.0,29,0.00,,---,0.00,VWS V14.00,2013-05-08 22:38:00,
2013-05-08 18:43:00,77.6,43.7,29.98,NNE,20,1.0,5.0,30,0.00,,---,0.00,VWS V14.00,2013-05-08 22:43:00,
2013-05-08 18:48:00,77.5,44.5,29.98,ESE,109,2.0,6.0,31,0.00,,---,0.00,VWS V14.00,2013-05-08 22:48:00,
2013-05-08 18:53:00,77.1,44.2,29.98,NE,55,2.0,6.0,31,0.00,,---,0.00,VWS V14.00,2013-05-08 22:53:00,
2013-05-08 18:58:00,76.2,43.4,29.97,ENE,57,2.0,2.0,31,0.00,,---,0.00,VWS V14.00,2013-05-08 22:58:00,
2013-05-08 19:00:00,76.3,43.5,29.98,NE,51,0.0,6.0,31,0.00,,---,0.00,VWS V14.00,2013-05-08 23:00:00,
2013-05-08 19:03:00,76.1,43.3,29.97,NNE,32,1.0,5.0,31,0.00,,---,0.00,VWS V14.00,2013-05-08 23:03:00,
2013-05-08 19:08:00,75.9,44.0,29.97,ENE,73,0.0,5.0,32,0.00,,---,0.00,VWS V14.00,2013-05-08 23:08:00,
2013-05-08 19:13:00,75.5,45.2,29.97,ENE,73,1.0,5.0,34,0.00,,---,0.00,VWS V14.00,2013-05-08 23:13:00,
2013-05-08 19:18:00,75.1,46.3,29.97,NNE,20,0.0,5.0,36,0.00,,---,0.00,VWS V14.00,2013-05-08 23:18:00,
2013-05-08 19:23:00,74.9,46.2,29.97,NNE,20,1.0,5.0,36,0.00,,---,0.00,VWS V14.00,2013-05-08 23:23:00,
2013-05-08 19:28:00,74.8,46.8,29.97,North,9,2.0,5.0,37,0.00,,---,0.00,VWS V14.00,2013-05-08 23:28:00,
2013-05-08 19:30:00,74.8,46.8,29.97,North,9,4.0,5.0,37,0.00,,---,0.00,VWS V14.00,2013-05-08 23:30:00,
2013-05-08 19:33:00,74.8,46.8,29.97,NNE,22,3.0,5.0,37,0.00,,---,0.00,VWS V14.00,2013-05-08 23:33:00,
2013-05-08 19:38:00,74.9,47.6,29.97,NNE,23,1.0,5.0,38,0.00,,---,0.00,VWS V14.00,2013-05-08 23:38:00,
2013-05-08 19:43:00,75.1,47.8,29.97,NNE,22,2.0,5.0,38,0.00,,---,0.00,VWS V14.00,2013-05-08 23:43:00,
2013-05-08 19:48:00,74.9,47.6,29.97,NNE,22,2.0,5.0,38,0.00,,---,0.00,VWS V14.00,2013-05-08 23:48:00,
2013-05-08 19:53:00,74.5,47.9,29.97,NNE,22,0.0,5.0,39,0.00,,---,0.00,VWS V14.00,2013-05-08 23:53:00,
2013-05-08 19:58:00,74.3,49.8,29.97,NNE,22,3.0,3.0,42,0.00,,---,0.00,VWS V14.00,2013-05-08 23:58:00,
2013-05-08 20:00:00,74.4,49.2,29.97,NNE,22,1.0,5.0,41,0.00,,---,0.00,VWS V14.00,2013-05-09 00:00:00,
2013-05-08 20:03:00,73.4,50.2,29.97,NNE,16,2.0,7.0,44,0.00,,---,0.00,VWS V14.00,2013-05-09 00:03:00,
2013-05-08 20:08:00,72.3,50.4,29.98,North,351,4.0,7.0,46,0.00,,---,0.00,VWS V14.00,2013-05-09 00:08:00,
2013-05-08 20:13:00,71.2,50.5,29.98,NNW,329,3.0,7.0,48,0.00,,---,0.00,VWS V14.00,2013-05-09 00:13:00,
2013-05-08 20:18:00,70.3,50.3,29.98,NNW,338,2.0,7.0,49,0.00,,---,0.00,VWS V14.00,2013-05-09 00:18:00,
2013-05-08 20:23:00,69.6,50.2,29.98,NNW,345,3.0,7.0,50,0.00,,---,0.00,VWS V14.00,2013-05-09 00:23:00,
2013-05-08 20:28:00,68.9,49.5,29.98,NNE,17,3.0,4.0,50,0.00,,---,0.00,VWS V14.00,2013-05-09 00:28:00,
2013-05-08 20:30:00,69.1,49.7,29.98,NNE,17,4.0,7.0,50,0.00,,---,0.00,VWS V14.00,2013-05-09 00:30:00,
2013-05-08 20:33:00,68.4,49.6,29.98,NNE,17,4.0,4.0,51,0.00,,---,0.00,VWS V14.00,2013-05-09 00:33:00,
2013-05-08 20:38:00,68.0,49.7,29.98,NNE,19,3.0,5.0,52,0.00,,---,0.00,VWS V14.00,2013-05-09 00:38:00,
2013-05-08 20:43:00,67.6,49.9,29.98,NNE,22,0.0,5.0,53,0.00,,---,0.00,VWS V14.00,2013-05-09 00:43:00,
2013-05-08 20:48:00,67.1,50.4,29.98,North,10,2.0,5.0,55,0.00,,---,0.00,VWS V14.00,2013-05-09 00:48:00,
2013-05-08 20:53:00,66.7,50.5,29.98,North,11,4.0,5.0,56,0.00,,---,0.00,VWS V14.00,2013-05-09 00:53:00,
2013-05-08 20:58:00,66.4,50.7,29.98,North,11,1.0,4.0,57,0.00,,---,0.00,VWS V14.00,2013-05-09 00:58:00,
2013-05-08 21:00:00,66.5,50.8,29.98,North,11,0.0,5.0,57,0.00,,---,0.00,VWS V14.00,2013-05-09 01:00:00,
2013-05-08 21:03:00,66.1,50.9,29.99,NNE,17,1.0,5.0,58,0.00,,---,0.00,VWS V14.00,2013-05-09 01:03:00,
2013-05-08 21:08:00,65.8,51.1,29.99,NNE,17,0.0,5.0,59,0.00,,---,0.00,VWS V14.00,2013-05-09 01:08:00,
2013-05-08 21:13:00,65.5,51.3,29.99,NNE,17,0.0,5.0,60,0.00,,---,0.00,VWS V14.00,2013-05-09 01:13:00,
2013-05-08 21:18:00,65.2,51.4,29.99,NNE,17,0.0,5.0,61,0.00,,---,0.00,VWS V14.00,2013-05-09 01:18:00,
2013-05-08 21:23:00,64.8,51.5,29.99,NNE,17,2.0,5.0,62,0.00,,---,0.00,VWS V14.00,2013-05-09 01:23:00,
2013-05-08 21:28:00,64.7,51.8,29.99,NNE,18,0.0,4.0,63,0.00,,---,0.00,VWS V14.00,2013-05-09 01:28:00,
2013-05-08 21:30:00,64.7,51.4,29.99,NNE,17,0.0,5.0,62,0.00,,---,0.00,VWS V14.00,2013-05-09 01:30:00,
2013-05-08 21:33:00,64.5,52.1,29.99,NNE,17,1.0,4.0,64,0.00,,---,0.00,VWS V14.00,2013-05-09 01:33:00,
2013-05-08 21:38:00,64.4,52.0,29.99,NNE,17,0.0,4.0,64,0.00,,---,0.00,VWS V14.00,2013-05-09 01:38:00,
2013-05-08 21:43:00,64.2,51.8,29.99,NNE,17,1.0,4.0,64,0.00,,---,0.00,VWS V14.00,2013-05-09 01:43:00,
2013-05-08 21:48:00,64.0,52.0,29.99,NNE,17,0.0,4.0,65,0.00,,---,0.00,VWS V14.00,2013-05-09 01:48:00,
2013-05-08 21:53:00,63.8,52.2,30.00,NNE,17,0.0,4.0,66,0.00,,---,0.00,VWS V14.00,2013-05-09 01:53:00,
2013-05-08 21:58:00,63.4,51.9,30.00,NNE,18,0.0,1.0,66,0.00,,---,0.00,VWS V14.00,2013-05-09 01:58:00,
2013-05-08 22:00:00,63.4,51.9,30.00,NNE,18,1.0,4.0,66,0.00,,---,0.00,VWS V14.00,2013-05-09 02:00:00,
2013-05-08 22:03:00,63.0,52.3,30.00,ENE,57,3.0,4.0,68,0.00,,---,0.00,VWS V14.00,2013-05-09 02:03:00,
2013-05-08 22:08:00,62.8,52.5,30.00,NE,46,0.0,4.0,69,0.00,,---,0.00,VWS V14.00,2013-05-09 02:08:00,
2013-05-08 22:13:00,62.6,52.3,30.00,NE,52,1.0,4.0,69,0.00,,---,0.00,VWS V14.00,2013-05-09 02:13:00,
2013-05-08 22:18:00,62.5,52.6,30.00,NE,52,1.0,4.0,70,0.00,,---,0.00,VWS V14.00,2013-05-09 02:18:00,
2013-05-08 22:23:00,62.3,52.4,30.00,NE,53,1.0,4.0,70,0.00,,---,0.00,VWS V14.00,2013-05-09 02:23:00,
2013-05-08 22:28:00,62.3,52.4,30.00,NE,54,0.0,3.0,70,0.00,,---,0.00,VWS V14.00,2013-05-09 02:28:00,
2013-05-08 22:30:00,62.3,52.4,30.00,NE,54,0.0,4.0,70,0.00,,---,0.00,VWS V14.00,2013-05-09 02:30:00,
2013-05-08 22:33:00,62.1,52.6,30.00,NE,53,0.0,3.0,71,0.00,,---,0.00,VWS V14.00,2013-05-09 02:33:00,
2013-05-08 22:38:00,62.1,52.6,30.00,NE,54,0.0,3.0,71,0.00,,---,0.00,VWS V14.00,2013-05-09 02:38:00,
2013-05-08 22:43:00,62.0,52.5,30.00,NE,54,0.0,3.0,71,0.00,,---,0.00,VWS V14.00,2013-05-09 02:43:00,
2013-05-08 22:48:00,61.9,52.8,30.00,NE,53,2.0,3.0,72,0.00,,---,0.00,VWS V14.00,2013-05-09 02:48:00,
2013-05-08 22:53:00,61.9,52.8,30.00,NE,54,0.0,4.0,72,0.00,,---,0.00,VWS V14.00,2013-05-09 02:53:00,
2013-05-08 22:58:00,61.8,52.7,30.00,NE,54,0.0,1.0,72,0.00,,---,0.00,VWS V14.00,2013-05-09 02:58:00,
2013-05-08 23:00:00,61.9,52.8,30.00,NE,54,0.0,4.0,72,0.00,,---,0.00,VWS V14.00,2013-05-09 03:00:00,
2013-05-08 23:03:00,61.6,52.5,30.00,NE,54,0.0,1.0,72,0.00,,---,0.00,VWS V14.00,2013-05-09 03:03:00,
2013-05-08 23:08:00,61.4,52.7,30.00,NE,54,0.0,2.0,73,0.00,,---,0.00,VWS V14.00,2013-05-09 03:08:00,
2013-05-08 23:13:00,61.3,53.0,30.00,NE,54,0.0,2.0,74,0.00,,---,0.00,VWS V14.00,2013-05-09 03:13:00,
2013-05-08 23:18:00,61.0,52.7,30.00,NE,53,0.0,2.0,74,0.00,,---,0.00,VWS V14.00,2013-05-09 03:18:00,
2013-05-08 23:23:00,60.7,52.7,30.00,NE,55,0.0,2.0,75,0.00,,---,0.00,VWS V14.00,2013-05-09 03:23:00,
2013-05-08 23:28:00,60.3,52.3,30.00,NE,54,0.0,0.0,75,0.00,,---,0.00,VWS V14.00,2013-05-09 03:28:00,
2013-05-08 23:30:00,60.4,52.5,30.00,NE,54,0.0,2.0,75,0.00,,---,0.00,VWS V14.00,2013-05-09 03:30:00,
2013-05-08 23:33:00,60.0,52.4,30.00,NE,54,0.0,0.0,76,0.00,,---,0.00,VWS V14.00,2013-05-09 03:33:00,
2013-05-08 23:38:00,59.7,52.1,30.00,NE,54,0.0,0.0,76,0.00,,---,0.00,VWS V14.00,2013-05-09 03:38:00,
2013-05-08 23:43:00,59.3,52.5,30.00,NE,54,0.0,0.0,78,0.00,,---,0.00,VWS V14.00,2013-05-09 03:43:00,
2013-05-08 23:48:00,58.9,52.1,30.00,NE,54,0.0,0.0,78,0.00,,---,0.00,VWS V14.00,2013-05-09 03:48:00,
2013-05-08 23:53:00,58.6,52.1,30.00,NE,54,0.0,0.0,79,0.00,,---,0.00,VWS V14.00,2013-05-09 03:53:00,
2013-05-08 23:58:00,58.4,52.3,30.00,NE,53,0.0,0.0,80,0.00,,---,0.00,VWS V14.00,2013-05-09 03:58:00,